Hovedside
METAR-TAF:

METAR-TAF

Lufthavner :

Nyslott, Finland

Nyslott lufthavn

breddegrad: 61-57N, lengdegrad: 028-57E, høyde over havet: 95 m

Gjeldene værobservasjon

Denne rapporten ble laget for 1 time og 9 minutter siden, klokken 09:50 UTC
Vind 11 kt fra Vest med vindkast opp mot 21 kt, skiftende mellom Sør-sørvest og Vest-nordvest
Temperatur 4°C
Luftfuktighet 60%
Trykk 1004 hPa
Sikt 10 km eller mer
Brutte skyer i en høyde av 3200 ft
Brutte skyer i en høyde av 8600 ft

METAR: EFSA 270950Z AUTO 26011G21KT 210V300 9999 BKN032 BKN086 04/M03 Q1004

Tid: 13:59 (10:59 UTC)

Varsel

Denne rapporten ble laget for 2 timer og 34 minutter siden, klokken 08:25 UTC
Varsel gyldig fra 27. klokken 09 UTC til 27. klokken 18 UTC
Vind 13 kt fra Sørvest
Sikt 10 km eller mer
Brutte skyer i en høyde av 2500 ft
Midlertidig
fra 27. klokken 09 UTC til 27. klokken 15 UTC
Sikt: 7000 m
Spredte skyer i en høyde av 3000 ft, Bygeskyer.
regnbyger

TAF: EFSA 270825Z 2709/2718 23013KT 9999 BKN025 TEMPO 2709/2715 7000 SHRA SCT030CB

Værobservasjoner og værvarsel for over 4000 flyplasser (METAR- og TAF-rapporter).

Tilgjengelige stasjoner er representert av de røde og gule prikkene på kartet.

Hold musepekeren over prikken for å se navnet på stasjonen.

Klikk så for å se værobservasjoner og -varsler.

For å forandre kartet kan du klikke på den grønne knappen med svart kryss for å zoome inn, på den grønne knappen med strek for å zoome ut, eller på de grønne pilene for å se tilstøtende kart.


METAR-TAF: